Time;durP1;ratioP1;P1;durP2;ratioP2;P2;SDS_P1;SDS_P2;PMS_P1;PMS_P2;Temp;Humidity;BMP_temperature;BMP_pressure;BME280_temperature;BME280_humidity;BME280_pressure;Samples;Min_cycle;Max_cycle;Signal;HPM_P1;HPM_P2
2022/12/20 00:01:28;;;;;;;;;;;9.60;99.90;;;;;;5041569;28;19920;-75
2022/12/20 00:03:54;;;;;;;;;;;9.70;99.90;;;;;;5039856;28;19916;-76
2022/12/20 00:06:20;;;;;;;;;;;9.60;99.90;;;;;;5041472;28;19927;-75
2022/12/20 00:08:46;;;;;;;;;;;9.70;99.90;;;;;;5037889;28;20501;-76
2022/12/20 00:11:12;;;;;;;;;;;9.70;99.90;;;;;;5038553;28;19917;-76
2022/12/20 00:13:38;;;;;;;;;;;9.80;99.90;;;;;;5036048;28;19966;-74
2022/12/20 00:16:03;;;;;;;;;;;9.80;99.90;;;;;;5044198;28;19967;-75
2022/12/20 00:18:29;;;;;;;;;;;9.80;99.90;;;;;;5042554;28;19917;-73
2022/12/20 00:21:01;;;;;;;;;;;9.80;99.90;;;;;;5045925;28;19921;-76
2022/12/20 00:23:28;;;;;;;;;;;9.80;99.90;;;;;;5044278;28;19946;-76
2022/12/20 00:25:59;;;;;;;;;;;9.80;99.90;;;;;;5037108;28;19913;-75
2022/12/20 00:28:24;;;;;;;;;;;9.90;99.90;;;;;;5044399;28;19909;-75
2022/12/20 00:30:53;;;;;;;;;;;9.90;99.90;;;;;;5037188;28;19920;-75
2022/12/20 00:33:18;;;;;;;;;;;10.00;99.90;;;;;;5040224;28;19917;-75
2022/12/20 00:35:44;;;;;;;;;;;10.20;99.90;;;;;;5034115;28;19916;-75
2022/12/20 00:38:09;;;;;;;;;;;10.20;99.90;;;;;;5031572;28;19920;-75
2022/12/20 00:40:35;;;;;;;;;;;10.30;99.90;;;;;;5039547;28;19920;-75
2022/12/20 00:43:00;;;;;;;;;;;10.40;99.90;;;;;;5040721;28;20005;-77
2022/12/20 00:45:26;;;;;;;;;;;10.40;99.90;;;;;;5034955;28;19924;-74
2022/12/20 00:47:51;;;;;;;;;;;10.50;99.90;;;;;;5042590;28;20399;-76
2022/12/20 00:50:16;;;;;;;;;;;10.50;99.90;;;;;;5037483;28;19917;-75
2022/12/20 00:52:42;;;;;;;;;;;10.60;99.90;;;;;;5034883;28;19917;-74
2022/12/20 00:55:07;;;;;;;;;;;10.70;99.90;;;;;;5037004;28;20007;-77
2022/12/20 00:57:33;;;;;;;;;;;10.70;99.90;;;;;;5042945;28;19931;-78
2022/12/20 00:59:58;;;;;;;;;;;10.80;99.90;;;;;;5040716;28;19916;-72
2022/12/20 01:02:24;;;;;;;;;;;10.80;99.90;;;;;;5039436;28;19913;-74
2022/12/20 01:04:49;;;;;;;;;;;10.80;99.90;;;;;;5042437;28;20453;-76
2022/12/20 01:07:15;;;;;;;;;;;10.90;99.90;;;;;;5040842;28;20231;-76
2022/12/20 01:09:40;;;;;;;;;;;10.90;99.90;;;;;;5038320;28;19916;-75
2022/12/20 01:12:06;;;;;;;;;;;10.90;99.90;;;;;;5043323;28;19917;-76
2022/12/20 01:14:31;;;;;;;;;;;10.90;99.90;;;;;;5042166;28;19923;-75
2022/12/20 01:16:57;;;;;;;;;;;11.00;99.90;;;;;;5045413;28;20359;-76
2022/12/20 01:19:22;;;;;;;;;;;11.00;99.90;;;;;;5036501;28;20349;-75
2022/12/20 01:21:48;;;;;;;;;;;11.00;99.90;;;;;;5034619;28;19921;-75
2022/12/20 01:24:14;;;;;;;;;;;11.10;99.90;;;;;;5035488;28;20489;-75
2022/12/20 01:26:40;;;;;;;;;;;11.10;99.90;;;;;;5036661;28;19917;-75
2022/12/20 01:29:05;;;;;;;;;;;11.20;99.90;;;;;;5036841;28;19995;-76
2022/12/20 01:31:31;;;;;;;;;;;11.10;99.90;;;;;;5040870;28;19920;-76
2022/12/20 01:33:57;;;;;;;;;;;11.20;99.90;;;;;;5032407;28;19975;-75
2022/12/20 01:36:25;;;;;;;;;;;11.30;99.90;;;;;;5039140;28;19917;-74
2022/12/20 01:38:50;;;;;;;;;;;11.30;99.90;;;;;;5033709;28;20375;-75
2022/12/20 01:41:17;;;;;;;;;;;11.40;99.90;;;;;;5041280;28;19917;-75
2022/12/20 01:43:54;;;;;;;;;;;11.50;99.90;;;;;;5040795;28;19955;-76
2022/12/20 01:46:21;;;;;;;;;;;11.50;99.90;;;;;;5037499;28;19955;-75
2022/12/20 01:49:06;;;;;;;;;;;11.60;99.90;;;;;;5034711;28;19920;-75
2022/12/20 01:51:34;;;;;;;;;;;11.60;99.90;;;;;;5043322;28;19913;-75
2022/12/20 01:54:13;;;;;;;;;;;11.70;99.90;;;;;;5034700;28;19960;-74
2022/12/20 01:56:39;;;;;;;;;;;11.70;99.90;;;;;;5035408;28;19913;-76
2022/12/20 01:59:05;;;;;;;;;;;11.60;99.90;;;;;;5039471;28;20513;-77
2022/12/20 02:01:31;;;;;;;;;;;11.60;99.90;;;;;;5034520;28;19913;-75
2022/12/20 02:03:56;;;;;;;;;;;11.70;99.90;;;;;;5039398;28;19974;-75
2022/12/20 02:06:23;;;;;;;;;;;11.70;99.90;;;;;;5043468;28;19924;-73
2022/12/20 02:08:49;;;;;;;;;;;11.80;99.90;;;;;;5041639;28;19928;-76
2022/12/20 02:11:15;;;;;;;;;;;11.90;99.90;;;;;;5037476;28;19917;-74
2022/12/20 02:13:59;;;;;;;;;;;11.90;99.90;;;;;;5035975;28;19924;-76
2022/12/20 02:16:26;;;;;;;;;;;11.90;99.90;;;;;;5040803;28;19919;-76
2022/12/20 02:18:58;;;;;;;;;;;11.90;99.90;;;;;;5039671;28;19949;-74
2022/12/20 02:21:31;;;;;;;;;;;11.90;99.90;;;;;;5042586;28;19913;-76
2022/12/20 02:24:23;;;;;;;;;;;12.00;99.90;;;;;;5040763;28;19967;-76
2022/12/20 02:26:49;;;;;;;;;;;12.00;99.90;;;;;;5030667;28;20016;-75
2022/12/20 02:29:21;;;;;;;;;;;12.00;99.90;;;;;;5043290;28;20012;-76
2022/12/20 02:32:05;;;;;;;;;;;11.90;99.90;;;;;;5043297;28;19916;-76
2022/12/20 02:34:32;;;;;;;;;;;12.00;99.90;;;;;;5032741;28;19928;-76
2022/12/20 02:36:57;;;;;;;;;;;12.00;99.90;;;;;;5043237;28;20000;-75
2022/12/20 02:39:25;;;;;;;;;;;12.00;99.90;;;;;;5032826;28;19995;-75
2022/12/20 02:41:53;;;;;;;;;;;12.00;99.90;;;;;;5036277;28;19921;-76
2022/12/20 02:47:09;;;;;;;;;;;11.90;99.90;;;;;;5041444;28;19920;-75
2022/12/20 02:49:45;;;;;;;;;;;11.80;99.90;;;;;;5041609;28;19910;-75
2022/12/20 02:52:11;;;;;;;;;;;11.80;99.90;;;;;;5036345;28;19913;-75
2022/12/20 02:54:37;;;;;;;;;;;11.90;99.90;;;;;;5039327;28;19924;-76
2022/12/20 02:57:10;;;;;;;;;;;11.80;99.90;;;;;;5038580;28;19913;-75
2022/12/20 02:59:38;;;;;;;;;;;11.80;99.90;;;;;;5033745;28;19909;-76
2022/12/20 03:02:04;;;;;;;;;;;11.80;99.90;;;;;;5030183;28;20023;-76
2022/12/20 03:04:33;;;;;;;;;;;11.80;99.90;;;;;;5038820;28;20318;-77
2022/12/20 03:07:00;;;;;;;;;;;11.80;99.90;;;;;;5032787;28;19920;-74
2022/12/20 03:09:26;;;;;;;;;;;11.90;99.90;;;;;;5038351;28;19917;-75
2022/12/20 03:11:52;;;;;;;;;;;11.90;99.90;;;;;;5038545;28;19912;-76
2022/12/20 03:14:18;;;;;;;;;;;12.00;99.90;;;;;;5028221;28;20172;-76
2022/12/20 03:16:43;;;;;;;;;;;12.00;99.90;;;;;;5043029;28;19913;-75
2022/12/20 03:19:09;;;;;;;;;;;12.00;99.90;;;;;;5034651;28;20416;-76
2022/12/20 03:21:34;;;;;;;;;;;11.90;99.90;;;;;;5037763;28;19920;-75
2022/12/20 03:23:59;;;;;;;;;;;12.00;99.90;;;;;;5029193;28;19915;-73
2022/12/20 03:26:25;;;;;;;;;;;11.90;99.90;;;;;;5036178;28;19909;-74
2022/12/20 03:28:51;;;;;;;;;;;11.90;99.90;;;;;;5035647;28;19909;-76
2022/12/20 03:31:16;;;;;;;;;;;11.80;99.90;;;;;;5039129;28;19960;-74
2022/12/20 03:33:42;;;;;;;;;;;11.90;99.90;;;;;;5039005;28;19908;-76
2022/12/20 03:36:07;;;;;;;;;;;11.80;99.90;;;;;;5034020;28;19917;-75
2022/12/20 03:38:33;;;;;;;;;;;11.80;99.90;;;;;;5036091;28;19937;-76
2022/12/20 03:40:58;;;;;;;;;;;11.80;99.90;;;;;;5041391;28;19913;-74
2022/12/20 03:43:24;;;;;;;;;;;11.80;99.90;;;;;;5044304;28;19913;-75
2022/12/20 03:45:49;;;;;;;;;;;11.70;99.90;;;;;;5042224;28;20570;-75
2022/12/20 03:48:14;;;;;;;;;;;11.60;99.90;;;;;;5039479;28;19924;-74
2022/12/20 03:50:40;;;;;;;;;;;11.60;99.90;;;;;;5036617;28;19917;-76
2022/12/20 03:53:05;;;;;;;;;;;11.50;99.90;;;;;;5034560;28;19974;-71
2022/12/20 03:55:31;;;;;;;;;;;11.40;99.90;;;;;;5045931;28;19913;-75
2022/12/20 03:57:56;;;;;;;;;;;11.40;99.90;;;;;;5043192;28;19921;-76
2022/12/20 04:00:22;;;;;;;;;;;11.50;99.90;;;;;;5039911;28;20435;-75
2022/12/20 04:02:47;;;;;;;;;;;11.50;99.90;;;;;;5048846;28;20003;-75
2022/12/20 04:05:13;;;;;;;;;;;11.40;99.90;;;;;;5040948;28;19920;-74
2022/12/20 04:07:39;;;;;;;;;;;11.40;99.90;;;;;;5034833;28;19923;-76
2022/12/20 04:10:04;;;;;;;;;;;11.50;99.90;;;;;;5031172;28;19913;-76
2022/12/20 04:12:30;;;;;;;;;;;11.40;99.90;;;;;;5039996;28;19917;-76
2022/12/20 04:14:55;;;;;;;;;;;11.60;99.90;;;;;;5036271;28;19959;-75
2022/12/20 04:17:21;;;;;;;;;;;11.60;99.90;;;;;;5039504;28;20147;-76
2022/12/20 04:19:46;;;;;;;;;;;11.80;99.90;;;;;;5022057;28;19920;-73
2022/12/20 04:22:12;;;;;;;;;;;11.90;99.90;;;;;;5038806;28;19917;-74
2022/12/20 04:24:37;;;;;;;;;;;12.10;99.90;;;;;;5040338;28;19909;-74
2022/12/20 04:27:03;;;;;;;;;;;12.20;99.90;;;;;;5052368;28;20007;-75
2022/12/20 04:29:28;;;;;;;;;;;12.30;99.90;;;;;;5063408;28;19947;-75
2022/12/20 04:31:54;;;;;;;;;;;12.40;99.90;;;;;;5061880;28;19913;-76
2022/12/20 04:34:19;;;;;;;;;;;12.50;99.90;;;;;;5058240;28;19963;-75
2022/12/20 04:36:45;;;;;;;;;;;12.70;99.90;;;;;;5062155;28;19945;-77
2022/12/20 04:39:10;;;;;;;;;;;12.80;99.90;;;;;;5060130;28;19924;-75
2022/12/20 04:41:36;;;;;;;;;;;13.00;99.90;;;;;;5040247;28;19936;-74
2022/12/20 04:44:01;;;;;;;;;;;13.00;99.90;;;;;;5043548;28;20592;-73
2022/12/20 04:46:26;;;;;;;;;;;13.20;99.90;;;;;;5037749;28;19919;-75
2022/12/20 04:48:52;;;;;;;;;;;13.30;99.90;;;;;;5045963;28;20390;-75
2022/12/20 04:51:18;;;;;;;;;;;13.40;99.90;;;;;;5043495;28;19916;-74
2022/12/20 04:53:46;;;;;;;;;;;13.50;99.90;;;;;;5036414;28;19917;-76
2022/12/20 04:56:38;;;;;;;;;;;13.60;99.90;;;;;;5037314;28;19917;-75
2022/12/20 04:59:04;;;;;;;;;;;13.70;99.90;;;;;;5039357;28;19935;-74
2022/12/20 05:01:29;;;;;;;;;;;13.80;99.90;;;;;;5038773;28;20435;-75
2022/12/20 05:03:55;;;;;;;;;;;13.70;99.90;;;;;;5039160;28;19921;-75
2022/12/20 05:06:20;;;;;;;;;;;13.90;99.90;;;;;;5044677;28;19923;-76
2022/12/20 05:08:46;;;;;;;;;;;13.90;99.90;;;;;;5044958;28;19919;-76
2022/12/20 05:11:12;;;;;;;;;;;14.00;99.90;;;;;;5042403;28;19978;-75
2022/12/20 05:13:37;;;;;;;;;;;14.10;99.90;;;;;;5039579;28;19913;-74
2022/12/20 05:16:03;;;;;;;;;;;14.20;99.90;;;;;;5043926;28;19913;-76
2022/12/20 05:18:29;;;;;;;;;;;14.40;99.90;;;;;;5043296;28;19923;-73
2022/12/20 05:26:24;;;;;;;;;;;14.40;99.90;;;;;;5044754;28;19959;-75
2022/12/20 05:28:50;;;;;;;;;;;14.50;99.90;;;;;;5043307;28;20531;-76
2022/12/20 05:31:16;;;;;;;;;;;14.60;99.90;;;;;;5042478;28;19913;-76
2022/12/20 05:33:41;;;;;;;;;;;14.60;99.90;;;;;;5045436;28;20354;-75
2022/12/20 05:36:07;;;;;;;;;;;14.60;99.90;;;;;;5042151;28;19920;-75
2022/12/20 05:38:32;;;;;;;;;;;14.80;99.90;;;;;;5041394;28;20453;-72
2022/12/20 05:40:58;;;;;;;;;;;14.80;99.90;;;;;;5036582;28;19913;-74
2022/12/20 05:43:23;;;;;;;;;;;14.90;99.90;;;;;;5041022;28;19913;-75
2022/12/20 05:45:50;;;;;;;;;;;14.80;99.90;;;;;;5046901;28;20310;-75
2022/12/20 05:48:16;;;;;;;;;;;14.90;99.90;;;;;;5030529;28;19920;-77
2022/12/20 05:50:45;;;;;;;;;;;14.90;99.90;;;;;;5043935;28;20381;-75
2022/12/20 05:53:14;;;;;;;;;;;15.00;99.90;;;;;;5045021;28;19909;-75
2022/12/20 05:55:47;;;;;;;;;;;15.00;99.90;;;;;;5045908;28;19920;-76
2022/12/20 05:58:13;;;;;;;;;;;15.00;99.90;;;;;;5042940;28;19916;-76
2022/12/20 06:00:39;;;;;;;;;;;14.90;99.90;;;;;;5040899;28;20356;-73
2022/12/20 06:03:05;;;;;;;;;;;14.70;99.90;;;;;;5044520;28;19921;-77
2022/12/20 06:05:31;;;;;;;;;;;14.60;99.90;;;;;;5047543;28;20299;-76
2022/12/20 06:07:56;;;;;;;;;;;14.50;99.90;;;;;;5046178;28;19919;-77
2022/12/20 06:10:22;;;;;;;;;;;14.40;99.90;;;;;;5048138;28;19917;-77
2022/12/20 06:12:47;;;;;;;;;;;14.30;99.90;;;;;;5038103;28;20279;-76
2022/12/20 06:15:14;;;;;;;;;;;14.20;99.90;;;;;;5042037;28;19921;-76
2022/12/20 06:17:40;;;;;;;;;;;14.20;99.90;;;;;;5041550;28;20576;-77
2022/12/20 06:20:05;;;;;;;;;;;14.00;99.90;;;;;;5046810;28;19974;-75
2022/12/20 06:22:31;;;;;;;;;;;13.90;99.90;;;;;;5045101;28;19913;-75
2022/12/20 06:24:56;;;;;;;;;;;13.70;99.90;;;;;;5042036;28;20360;-77
2022/12/20 06:27:22;;;;;;;;;;;13.50;99.90;;;;;;5042658;28;19921;-75
2022/12/20 06:29:50;;;;;;;;;;;13.40;99.90;;;;;;5039212;28;19967;-75
2022/12/20 06:32:16;;;;;;;;;;;13.30;99.90;;;;;;5042375;28;19916;-75
2022/12/20 06:34:42;;;;;;;;;;;13.20;99.90;;;;;;5040416;28;19967;-74
2022/12/20 06:37:07;;;;;;;;;;;13.10;99.90;;;;;;5039800;28;20109;-76
2022/12/20 06:39:33;;;;;;;;;;;13.10;99.90;;;;;;5046194;28;19940;-75
2022/12/20 06:41:58;;;;;;;;;;;12.90;99.90;;;;;;5044139;28;19963;-74
2022/12/20 06:44:24;;;;;;;;;;;12.80;99.90;;;;;;5043150;28;19917;-77
2022/12/20 06:46:49;;;;;;;;;;;12.70;99.90;;;;;;5044796;28;19945;-76
2022/12/20 06:49:15;;;;;;;;;;;12.70;99.90;;;;;;5036975;28;20751;-75
2022/12/20 06:51:41;;;;;;;;;;;12.60;99.90;;;;;;5046959;28;19916;-76
2022/12/20 06:54:07;;;;;;;;;;;12.50;99.90;;;;;;5036233;28;19921;-75
2022/12/20 06:56:32;;;;;;;;;;;12.50;99.90;;;;;;5036382;28;19913;-75
2022/12/20 06:58:57;;;;;;;;;;;12.40;99.90;;;;;;5044970;28;20464;-75
2022/12/20 07:01:23;;;;;;;;;;;12.20;99.90;;;;;;5040483;28;19908;-76
2022/12/20 07:03:48;;;;;;;;;;;12.20;99.90;;;;;;5044889;28;20315;-75
2022/12/20 07:06:14;;;;;;;;;;;12.20;99.90;;;;;;5048426;28;19913;-76
2022/12/20 07:08:42;;;;;;;;;;;12.00;99.90;;;;;;5047816;28;19917;-75
2022/12/20 07:11:08;;;;;;;;;;;12.00;99.90;;;;;;5040881;28;20393;-76
2022/12/20 07:13:33;;;;;;;;;;;12.00;99.90;;;;;;5040871;28;19913;-74
2022/12/20 07:16:00;;;;;;;;;;;11.90;99.90;;;;;;5036040;28;20416;-74
2022/12/20 07:18:26;;;;;;;;;;;11.80;99.90;;;;;;5042859;28;19916;-77
2022/12/20 07:20:52;;;;;;;;;;;11.80;99.90;;;;;;5036912;28;19909;-77
2022/12/20 07:23:17;;;;;;;;;;;11.80;99.90;;;;;;5044289;28;19920;-75
2022/12/20 07:25:43;;;;;;;;;;;11.70;99.90;;;;;;5039936;28;20440;-76
2022/12/20 07:28:08;;;;;;;;;;;11.70;99.90;;;;;;5046661;28;19909;-77
2022/12/20 07:30:34;;;;;;;;;;;11.80;99.90;;;;;;5043561;28;21243;-77
2022/12/20 07:32:59;;;;;;;;;;;11.80;99.90;;;;;;5040137;28;19908;-74
2022/12/20 07:35:25;;;;;;;;;;;11.80;99.90;;;;;;5029441;28;19921;-75
2022/12/20 07:37:51;;;;;;;;;;;11.90;99.90;;;;;;5035565;28;19916;-77
2022/12/20 07:40:16;;;;;;;;;;;11.80;99.90;;;;;;5036584;28;19913;-74
2022/12/20 07:42:41;;;;;;;;;;;11.80;99.90;;;;;;5040683;28;19912;-73
2022/12/20 07:45:07;;;;;;;;;;;11.90;99.90;;;;;;5037116;28;19917;-76
2022/12/20 07:47:34;;;;;;;;;;;11.80;99.90;;;;;;5038160;28;20604;-76
2022/12/20 07:50:00;;;;;;;;;;;11.80;99.90;;;;;;5039375;28;19962;-76
2022/12/20 07:52:27;;;;;;;;;;;11.90;99.90;;;;;;5033500;28;19913;-74
2022/12/20 07:54:53;;;;;;;;;;;11.90;99.90;;;;;;5037465;28;19913;-77
2022/12/20 07:57:24;;;;;;;;;;;11.90;99.90;;;;;;5044512;28;19920;-77
2022/12/20 07:59:52;;;;;;;;;;;11.80;99.90;;;;;;5038905;28;19916;-76
2022/12/20 08:02:21;;;;;;;;;;;11.80;99.90;;;;;;5043529;28;20101;-75
2022/12/20 08:04:47;;;;;;;;;;;11.90;99.90;;;;;;5040061;28;19913;-73
2022/12/20 08:07:12;;;;;;;;;;;11.90;99.90;;;;;;5036378;28;20383;-76
2022/12/20 08:09:39;;;;;;;;;;;11.90;99.90;;;;;;5044728;28;19909;-76
2022/12/20 08:12:07;;;;;;;;;;;11.90;99.90;;;;;;5045486;28;20203;-77
2022/12/20 08:14:33;;;;;;;;;;;11.90;99.90;;;;;;5046745;28;19920;-76
2022/12/20 08:16:59;;;;;;;;;;;11.90;99.90;;;;;;5043068;28;19971;-74
2022/12/20 08:19:25;;;;;;;;;;;11.90;99.90;;;;;;5043093;28;19912;-77
2022/12/20 08:21:50;;;;;;;;;;;11.90;99.90;;;;;;5038162;28;19909;-73
2022/12/20 08:24:16;;;;;;;;;;;11.90;99.90;;;;;;5043857;28;19935;-76
2022/12/20 08:26:41;;;;;;;;;;;11.90;99.90;;;;;;5046892;28;19985;-75
2022/12/20 08:29:07;;;;;;;;;;;11.90;99.90;;;;;;5041969;28;20287;-76
2022/12/20 08:31:36;;;;;;;;;;;11.90;99.90;;;;;;5043100;28;19908;-76
2022/12/20 08:34:01;;;;;;;;;;;11.90;99.90;;;;;;5042049;28;19916;-77
2022/12/20 08:36:27;;;;;;;;;;;11.90;99.90;;;;;;5046482;28;20371;-74
2022/12/20 08:38:52;;;;;;;;;;;12.00;99.90;;;;;;5035047;28;19909;-76
2022/12/20 08:41:18;;;;;;;;;;;12.10;99.90;;;;;;5036666;28;19963;-77
2022/12/20 08:43:44;;;;;;;;;;;12.10;99.90;;;;;;5038255;28;20442;-76
2022/12/20 08:46:11;;;;;;;;;;;12.30;99.90;;;;;;5040353;28;19913;-75
2022/12/20 08:48:36;;;;;;;;;;;12.40;99.90;;;;;;5031612;28;19967;-76
2022/12/20 08:51:03;;;;;;;;;;;12.50;99.90;;;;;;5041636;28;19948;-76
2022/12/20 08:53:29;;;;;;;;;;;12.60;99.90;;;;;;5040854;28;19915;-73
2022/12/20 08:56:08;;;;;;;;;;;12.80;99.90;;;;;;5039542;28;19913;-77
2022/12/20 08:58:34;;;;;;;;;;;12.90;99.90;;;;;;5042863;28;19920;-76
2022/12/20 09:01:00;;;;;;;;;;;12.90;99.90;;;;;;5034134;28;19910;-73
2022/12/20 09:03:29;;;;;;;;;;;13.10;99.90;;;;;;5039297;28;19971;-75
2022/12/20 09:05:54;;;;;;;;;;;13.20;99.90;;;;;;5038355;28;19909;-77
2022/12/20 09:08:20;;;;;;;;;;;13.20;99.90;;;;;;5040317;28;19909;-73
2022/12/20 09:10:45;;;;;;;;;;;13.40;99.90;;;;;;5040723;28;19913;-76
2022/12/20 09:13:11;;;;;;;;;;;13.40;99.90;;;;;;5042719;28;19935;-76
2022/12/20 09:15:36;;;;;;;;;;;13.60;99.90;;;;;;5037163;28;20307;-74
2022/12/20 09:18:02;;;;;;;;;;;13.70;99.90;;;;;;5035662;28;20277;-77
2022/12/20 09:20:27;;;;;;;;;;;13.80;99.90;;;;;;5045103;28;20558;-76
2022/12/20 09:22:53;;;;;;;;;;;13.90;99.90;;;;;;5048505;28;19909;-75
2022/12/20 09:25:18;;;;;;;;;;;14.00;99.90;;;;;;5048263;28;20017;-75
2022/12/20 09:27:44;;;;;;;;;;;14.20;99.90;;;;;;5048788;28;20015;-77
2022/12/20 09:30:09;;;;;;;;;;;14.20;99.90;;;;;;5049119;28;20752;-77
2022/12/20 09:32:36;;;;;;;;;;;14.40;99.90;;;;;;5049523;28;19920;-76
2022/12/20 09:35:02;;;;;;;;;;;14.30;99.90;;;;;;5045104;28;19912;-78
2022/12/20 09:37:31;;;;;;;;;;;14.50;99.90;;;;;;5043476;28;20509;-76
2022/12/20 09:39:56;;;;;;;;;;;14.40;99.90;;;;;;5043370;28;19913;-77
2022/12/20 09:42:24;;;;;;;;;;;14.50;99.90;;;;;;5042461;28;20442;-74
2022/12/20 09:44:50;;;;;;;;;;;14.60;99.90;;;;;;5035134;28;19916;-78
2022/12/20 09:47:18;;;;;;;;;;;14.80;99.90;;;;;;5047158;28;19913;-76
2022/12/20 09:49:45;;;;;;;;;;;14.70;99.90;;;;;;5046059;28;19909;-77
2022/12/20 09:52:21;;;;;;;;;;;14.80;99.90;;;;;;5038345;28;20032;-76
2022/12/20 09:54:56;;;;;;;;;;;15.00;99.90;;;;;;5043986;28;19917;-75
2022/12/20 09:57:33;;;;;;;;;;;15.10;99.90;;;;;;5037728;28;20064;-77
2022/12/20 09:59:59;;;;;;;;;;;15.10;99.90;;;;;;5037775;28;20538;-74
2022/12/20 10:02:25;;;;;;;;;;;15.20;99.90;;;;;;5043378;28;20007;-77
2022/12/20 10:04:51;;;;;;;;;;;15.30;99.90;;;;;;5042793;28;19920;-76
2022/12/20 10:07:25;;;;;;;;;;;15.30;99.90;;;;;;5043590;28;20153;-75
2022/12/20 10:10:09;;;;;;;;;;;15.40;99.90;;;;;;5034821;28;19913;-76
2022/12/20 10:12:34;;;;;;;;;;;15.40;99.90;;;;;;5042050;28;20086;-76
2022/12/20 10:15:06;;;;;;;;;;;15.40;99.90;;;;;;5043360;28;20613;-76
2022/12/20 10:17:49;;;;;;;;;;;15.60;99.90;;;;;;5042230;28;20011;-76
2022/12/20 10:20:21;;;;;;;;;;;15.70;99.90;;;;;;5044273;28;19927;-76
2022/12/20 10:22:59;;;;;;;;;;;15.80;99.90;;;;;;5039406;28;20471;-76
2022/12/20 10:25:31;;;;;;;;;;;15.70;99.90;;;;;;5042814;28;19963;-76
2022/12/20 10:27:59;;;;;;;;;;;15.80;99.90;;;;;;5036178;28;19956;-78
2022/12/20 10:30:26;;;;;;;;;;;16.00;99.90;;;;;;5036598;28;20281;-76
2022/12/20 10:32:55;;;;;;;;;;;16.00;99.90;;;;;;5042567;28;19960;-76
2022/12/20 10:35:42;;;;;;;;;;;15.90;99.90;;;;;;5042952;28;19920;-76
2022/12/20 10:38:12;;;;;;;;;;;16.00;99.90;;;;;;5041483;28;20654;-76
2022/12/20 10:40:40;;;;;;;;;;;16.20;99.90;;;;;;5040764;28;19913;-74
2022/12/20 10:43:13;;;;;;;;;;;16.10;99.90;;;;;;5040351;28;20400;-74
2022/12/20 10:45:40;;;;;;;;;;;16.40;99.90;;;;;;5041669;28;19913;-76
2022/12/20 10:48:24;;;;;;;;;;;16.30;99.90;;;;;;5041037;28;19912;-77
2022/12/20 10:50:58;;;;;;;;;;;16.40;99.90;;;;;;5035418;28;19909;-73
2022/12/20 10:53:24;;;;;;;;;;;16.40;99.90;;;;;;5036279;28;19978;-78
2022/12/20 10:55:51;;;;;;;;;;;16.50;99.90;;;;;;5035123;28;19948;-75
2022/12/20 10:58:30;;;;;;;;;;;16.50;99.90;;;;;;5036797;28;20425;-75
2022/12/20 11:01:03;;;;;;;;;;;16.60;99.90;;;;;;5037943;28;19913;-77
2022/12/20 11:03:29;;;;;;;;;;;16.60;99.90;;;;;;5037518;28;20429;-75
2022/12/20 11:05:57;;;;;;;;;;;16.80;99.90;;;;;;5037923;28;20673;-78
2022/12/20 11:08:23;;;;;;;;;;;16.90;99.90;;;;;;5036758;28;19920;-74
2022/12/20 11:10:49;;;;;;;;;;;17.00;99.90;;;;;;5043261;28;19921;-77
2022/12/20 11:13:22;;;;;;;;;;;16.90;99.90;;;;;;5032267;28;19971;-78
2022/12/20 11:15:49;;;;;;;;;;;17.10;99.90;;;;;;5035475;28;19921;-77
2022/12/20 11:18:19;;;;;;;;;;;17.10;99.90;;;;;;5037890;28;19952;-76
2022/12/20 11:20:49;;;;;;;;;;;17.20;99.90;;;;;;5040603;28;19915;-79
2022/12/20 11:23:34;;;;;;;;;;;17.30;99.90;;;;;;5038571;28;20297;-76
2022/12/20 11:26:05;;;;;;;;;;;17.40;99.90;;;;;;5038724;28;20000;-74
2022/12/20 11:28:43;;;;;;;;;;;17.40;99.90;;;;;;5028900;28;20455;-77
2022/12/20 11:31:18;;;;;;;;;;;17.50;99.90;;;;;;5033238;28;19988;-77
2022/12/20 11:33:50;;;;;;;;;;;17.50;99.90;;;;;;5044405;28;19909;-77
2022/12/20 11:36:38;;;;;;;;;;;17.60;99.90;;;;;;5039460;28;19920;-76
2022/12/20 11:39:11;;;;;;;;;;;17.60;99.90;;;;;;5039708;28;19919;-76
2022/12/20 11:41:41;;;;;;;;;;;17.70;99.90;;;;;;5051830;28;19908;-77
2022/12/20 11:44:35;;;;;;;;;;;17.90;99.90;;;;;;5056428;28;19909;-76
2022/12/20 11:47:07;;;;;;;;;;;17.90;99.90;;;;;;5034543;28;20036;-74
2022/12/20 11:49:51;;;;;;;;;;;18.00;99.90;;;;;;5041808;28;19913;-76
2022/12/20 11:52:16;;;;;;;;;;;18.00;99.90;;;;;;5045288;28;20011;-76
2022/12/20 11:54:47;;;;;;;;;;;18.10;99.90;;;;;;5045667;28;19959;-77
2022/12/20 11:57:19;;;;;;;;;;;18.10;99.90;;;;;;5053448;28;19939;-76
2022/12/20 11:59:50;;;;;;;;;;;18.00;99.90;;;;;;5036725;28;19913;-77
2022/12/20 12:02:19;;;;;;;;;;;18.10;99.90;;;;;;5033405;28;19912;-76
2022/12/20 12:05:05;;;;;;;;;;;18.20;99.90;;;;;;5040469;28;19917;-75
2022/12/20 12:07:31;;;;;;;;;;;18.30;99.90;;;;;;5029878;28;20129;-77
2022/12/20 12:09:57;;;;;;;;;;;18.30;99.90;;;;;;5031687;28;19920;-78
2022/12/20 12:12:27;;;;;;;;;;;18.30;99.90;;;;;;5038382;28;19908;-77
2022/12/20 12:15:02;;;;;;;;;;;18.20;99.90;;;;;;5036501;28;19917;-77
2022/12/20 12:17:37;;;;;;;;;;;18.50;99.90;;;;;;5044493;28;19974;-77
2022/12/20 12:20:14;;;;;;;;;;;18.50;99.90;;;;;;5037256;28;19951;-77
2022/12/20 12:22:41;;;;;;;;;;;18.50;99.90;;;;;;5030570;28;20000;-77
2022/12/20 12:25:10;;;;;;;;;;;18.40;99.90;;;;;;5027144;28;19909;-78
2022/12/20 12:27:35;;;;;;;;;;;18.60;99.90;;;;;;5037219;28;19963;-77
2022/12/20 12:30:01;;;;;;;;;;;18.60;99.90;;;;;;5043387;28;19909;-77
2022/12/20 12:32:32;;;;;;;;;;;18.70;99.90;;;;;;5034075;28;20291;-77
2022/12/20 12:35:30;;;;;;;;;;;18.60;99.90;;;;;;5043741;28;19944;-76
2022/12/20 12:38:03;;;;;;;;;;;18.50;99.90;;;;;;5023236;28;19986;-76
2022/12/20 12:40:38;;;;;;;;;;;18.70;99.90;;;;;;5047636;28;19913;-77
2022/12/20 12:43:17;;;;;;;;;;;18.70;99.90;;;;;;5038705;28;19928;-77
2022/12/20 12:45:47;;;;;;;;;;;18.70;99.90;;;;;;5038340;28;19909;-76
2022/12/20 12:48:18;;;;;;;;;;;18.70;99.90;;;;;;5045836;28;19913;-77
2022/12/20 12:50:46;;;;;;;;;;;18.90;99.90;;;;;;5040054;28;19936;-76
2022/12/20 12:53:13;;;;;;;;;;;18.80;99.90;;;;;;5031778;28;19913;-78
2022/12/20 12:55:40;;;;;;;;;;;18.90;99.90;;;;;;5045885;28;20318;-76
2022/12/20 12:58:21;;;;;;;;;;;18.90;99.90;;;;;;5042399;28;20321;-77
2022/12/20 13:00:52;;;;;;;;;;;19.00;99.90;;;;;;5049188;28;19909;-75
2022/12/20 13:03:53;;;;;;;;;;;19.00;99.90;;;;;;5040658;28;19951;-76
2022/12/20 13:06:22;;;;;;;;;;;19.00;99.90;;;;;;4982456;28;20760;-77
2022/12/20 13:09:02;;;;;;;;;;;19.10;99.90;;;;;;5036970;28;19956;-76
2022/12/20 13:11:32;;;;;;;;;;;19.20;99.90;;;;;;5043266;28;19923;-79
2022/12/20 13:14:24;;;;;;;;;;;19.10;99.90;;;;;;5032925;28;19913;-78
2022/12/20 13:16:51;;;;;;;;;;;19.20;99.90;;;;;;5021915;28;19915;-79
2022/12/20 13:19:16;;;;;;;;;;;19.20;99.90;;;;;;5046069;28;19913;-78
2022/12/20 13:21:43;;;;;;;;;;;19.10;99.90;;;;;;5048349;28;19998;-77
2022/12/20 13:24:27;;;;;;;;;;;19.20;99.90;;;;;;5039982;28;19964;-78
2022/12/20 13:26:53;;;;;;;;;;;19.40;99.90;;;;;;5038533;28;19909;-78
2022/12/20 13:29:23;;;;;;;;;;;19.20;99.90;;;;;;5040556;28;19917;-76
2022/12/20 13:31:48;;;;;;;;;;;19.30;99.90;;;;;;5029674;28;19924;-78
2022/12/20 13:34:33;;;;;;;;;;;19.30;99.90;;;;;;5042950;28;19913;-75
2022/12/20 13:36:58;;;;;;;;;;;19.30;99.90;;;;;;5047490;28;19912;-78
2022/12/20 13:39:25;;;;;;;;;;;19.50;99.90;;;;;;5049940;28;19970;-77
2022/12/20 13:41:53;;;;;;;;;;;19.40;99.90;;;;;;5032797;28;20013;-78
2022/12/20 13:44:33;;;;;;;;;;;19.50;99.90;;;;;;5046797;28;20043;-76
2022/12/20 13:47:20;;;;;;;;;;;19.50;99.90;;;;;;5040805;28;19912;-77
2022/12/20 13:49:46;;;;;;;;;;;19.60;99.90;;;;;;5039889;28;20434;-79
2022/12/20 13:52:14;;;;;;;;;;;19.60;99.90;;;;;;5037585;28;19913;-77
2022/12/20 13:54:41;;;;;;;;;;;19.60;99.90;;;;;;5033369;28;19939;-78
2022/12/20 13:57:08;;;;;;;;;;;19.60;99.90;;;;;;5047124;28;19924;-77
2022/12/20 13:59:34;;;;;;;;;;;19.70;99.90;;;;;;5044465;28;19955;-78
2022/12/20 14:02:01;;;;;;;;;;;19.70;99.90;;;;;;5046444;28;19940;-75
2022/12/20 14:04:37;;;;;;;;;;;19.60;99.90;;;;;;5048075;28;20023;-77
2022/12/20 14:07:03;;;;;;;;;;;19.70;99.90;;;;;;5038693;28;20424;-77
2022/12/20 14:09:29;;;;;;;;;;;19.70;99.90;;;;;;5043914;28;20370;-75
2022/12/20 14:12:01;;;;;;;;;;;19.80;99.90;;;;;;5046579;28;20406;-78
2022/12/20 14:14:27;;;;;;;;;;;19.80;99.90;;;;;;5047860;28;19913;-76
2022/12/20 14:16:52;;;;;;;;;;;19.80;99.90;;;;;;5045601;28;19909;-75
2022/12/20 14:19:17;;;;;;;;;;;19.70;99.90;;;;;;5047034;28;19920;-76
2022/12/20 14:21:44;;;;;;;;;;;19.80;99.90;;;;;;5046046;28;19912;-76
2022/12/20 14:24:16;;;;;;;;;;;19.80;99.90;;;;;;5041273;28;20309;-77
2022/12/20 14:26:43;;;;;;;;;;;19.80;99.90;;;;;;5041479;28;19913;-76
2022/12/20 14:29:10;;;;;;;;;;;19.60;99.90;;;;;;5034526;28;19944;-76
2022/12/20 14:31:40;;;;;;;;;;;19.70;99.90;;;;;;5043585;28;19913;-76
2022/12/20 14:34:11;;;;;;;;;;;19.90;99.90;;;;;;5042317;28;20306;-76